Time;durP1;ratioP1;P1;durP2;ratioP2;P2;SDS_P1;SDS_P2;PMS_P1;PMS_P2;Temp;Humidity;BMP_temperature;BMP_pressure;BME280_temperature;BME280_humidity;BME280_pressure;Samples;Min_cycle;Max_cycle;Signal;HPM_P1;HPM_P2
2021/11/13 00:01:27;;;;;;;13.88;6.47;;;3.60;99.90;;;;;;6756265;87;20756;-77
2021/11/13 00:11:27;;;;;;;17.33;7.55;;;3.60;99.90;;;;;;6802610;87;20196;-77
2021/11/13 00:21:29;;;;;;;15.48;7.68;;;3.80;99.90;;;;;;6802129;87;20202;-77
2021/11/13 00:31:31;;;;;;;16.92;8.52;;;3.90;99.90;;;;;;6801647;87;20250;-77
2021/11/13 00:41:32;;;;;;;17.27;8.30;;;4.00;99.90;;;;;;6800502;87;20182;-77
2021/11/13 00:51:34;;;;;;;16.15;7.82;;;4.20;99.90;;;;;;6763093;88;20390;-78
2021/11/13 01:01:34;;;;;;;16.90;8.25;;;4.50;99.90;;;;;;6760928;88;20411;-78
2021/11/13 01:11:35;;;;;;;18.25;8.70;;;4.60;99.90;;;;;;6757246;88;20795;-78
2021/11/13 01:21:35;;;;;;;16.98;8.40;;;4.70;99.90;;;;;;6762889;88;20317;-80
2021/11/13 01:31:36;;;;;;;17.60;8.00;;;4.80;99.90;;;;;;6780018;87;20242;-77
2021/11/13 01:41:37;;;;;;;16.08;8.32;;;4.80;99.90;;;;;;6782391;87;20221;-77
2021/11/13 01:51:38;;;;;;;17.67;8.70;;;4.80;99.90;;;;;;6771731;88;20188;-77
2021/11/13 02:01:39;;;;;;;18.30;8.55;;;4.80;99.90;;;;;;6775291;88;20208;-77
2021/11/13 02:11:39;;;;;;;18.40;8.65;;;5.00;99.90;;;;;;6764582;88;20675;-77
2021/11/13 02:21:40;;;;;;;21.20;9.45;;;5.20;99.90;;;;;;6765588;88;20277;-77
2021/11/13 02:31:43;;;;;;;17.35;9.48;;;5.30;99.90;;;;;;6771534;88;20873;-77
2021/11/13 02:41:45;;;;;;;19.40;9.63;;;5.20;99.90;;;;;;6771330;88;20202;-77
2021/11/13 02:51:46;;;;;;;18.27;9.13;;;5.20;99.90;;;;;;6758268;88;20285;-77
2021/11/13 03:01:47;;;;;;;17.92;8.80;;;5.20;99.90;;;;;;6759890;88;20206;-79
2021/11/13 03:11:47;;;;;;;21.05;9.70;;;5.30;99.90;;;;;;6770618;88;20200;-79
2021/11/13 03:21:48;;;;;;;22.10;9.85;;;5.50;99.90;;;;;;6771226;88;20619;-79
2021/11/13 03:31:49;;;;;;;22.52;10.30;;;5.60;99.90;;;;;;6753756;88;20221;-79
2021/11/13 03:41:51;;;;;;;22.87;11.20;;;5.70;99.90;;;;;;6751863;88;20314;-79
2021/11/13 03:51:51;;;;;;;24.30;10.32;;;5.90;99.90;;;;;;6754015;88;20222;-77
2021/11/13 04:01:52;;;;;;;21.23;11.10;;;6.10;99.90;;;;;;6762347;88;20213;-76
2021/11/13 04:11:52;;;;;;;23.62;10.98;;;6.00;99.90;;;;;;6763303;88;20534;-77
2021/11/13 04:21:54;;;;;;;25.20;11.52;;;6.00;99.90;;;;;;6736252;88;20205;-79
2021/11/13 04:31:55;;;;;;;25.23;11.18;;;6.00;99.90;;;;;;6756226;88;20183;-77
2021/11/13 04:41:55;;;;;;;28.80;12.53;;;6.10;99.90;;;;;;6766268;88;20187;-76
2021/11/13 04:51:56;;;;;;;27.20;12.07;;;6.00;99.90;;;;;;6765779;88;21096;-77
2021/11/13 05:01:57;;;;;;;29.00;12.10;;;5.80;99.90;;;;;;6763747;88;20312;-76
2021/11/13 05:11:57;;;;;;;30.65;13.35;;;5.80;99.90;;;;;;6763002;88;20498;-77
2021/11/13 05:21:58;;;;;;;32.83;12.10;;;5.90;99.90;;;;;;6762986;88;20240;-76
2021/11/13 05:31:59;;;;;;;25.65;11.73;;;5.90;99.90;;;;;;6757761;88;20562;-80
2021/11/13 05:42:00;;;;;;;23.67;10.55;;;6.20;99.90;;;;;;6757335;88;20176;-77
2021/11/13 05:52:00;;;;;;;17.15;8.25;;;6.50;99.90;;;;;;6759408;88;20189;-76
2021/11/13 06:02:01;;;;;;;26.33;9.98;;;6.90;99.90;;;;;;6760613;88;20198;-77
2021/11/13 06:12:02;;;;;;;20.88;9.52;;;7.00;99.90;;;;;;6763633;88;20222;-77
2021/11/13 06:22:03;;;;;;;19.62;9.32;;;6.90;99.90;;;;;;6746960;88;20304;-76
2021/11/13 06:32:04;;;;;;;25.42;9.85;;;6.90;99.90;;;;;;6744281;88;20208;-77
2021/11/13 06:42:05;;;;;;;22.67;9.73;;;6.90;99.90;;;;;;6745624;88;20405;-77
2021/11/13 06:52:06;;;;;;;21.50;8.45;;;7.00;99.90;;;;;;6739854;88;20191;-76
2021/11/13 07:02:08;;;;;;;14.43;6.35;;;7.10;99.90;;;;;;6761450;87;20199;-77
2021/11/13 07:12:08;;;;;;;8.07;4.32;;;7.30;99.90;;;;;;6760770;88;20205;-77
2021/11/13 07:22:09;;;;;;;6.87;3.60;;;7.50;99.90;;;;;;6766977;88;20281;-79
2021/11/13 07:32:11;;;;;;;8.15;3.10;;;7.70;99.90;;;;;;6757655;88;20720;-77
2021/11/13 07:42:11;;;;;;;7.18;2.87;;;7.80;99.90;;;;;;6761212;88;20197;-76
2021/11/13 07:52:12;;;;;;;5.05;2.60;;;7.80;99.90;;;;;;6758064;88;20192;-77
2021/11/13 08:02:12;;;;;;;3.70;2.33;;;7.90;99.90;;;;;;6759711;88;20674;-77
2021/11/13 08:12:13;;;;;;;3.40;1.70;;;8.00;99.90;;;;;;6766436;88;20212;-79
2021/11/13 08:22:14;;;;;;;2.50;1.70;;;8.10;99.90;;;;;;6754139;88;20181;-77
2021/11/13 08:32:14;;;;;;;11.23;5.55;;;8.20;99.90;;;;;;6767456;77;20190;-79
2021/11/13 08:42:15;;;;;;;15.77;8.38;;;8.30;99.90;;;;;;6753129;88;20562;-80
2021/11/13 08:52:17;;;;;;;13.83;8.20;;;8.00;99.90;;;;;;6752751;88;20204;-78
2021/11/13 09:02:24;;;;;;;14.52;7.35;;;8.20;99.90;;;;;;6750301;88;20545;-79
2021/11/13 09:12:27;;;;;;;13.73;6.05;;;8.50;99.90;;;;;;6735231;88;20190;-78
2021/11/13 09:22:28;;;;;;;11.50;6.68;;;8.60;99.90;;;;;;6743462;88;20190;-80
2021/11/13 09:32:29;;;;;;;10.05;5.18;;;9.00;99.90;;;;;;6747385;88;20200;-78
2021/11/13 09:42:31;;;;;;;8.37;4.37;;;9.10;99.90;;;;;;6732471;88;20213;-78
2021/11/13 09:52:32;;;;;;;6.50;3.70;;;9.40;99.90;;;;;;6725188;88;20667;-77
2021/11/13 10:02:33;;;;;;;9.52;5.60;;;9.70;99.90;;;;;;6725878;88;20349;-78
2021/11/13 10:12:38;;;;;;;10.73;4.47;;;9.90;99.90;;;;;;6730746;88;20767;-78
2021/11/13 10:22:43;;;;;;;8.53;4.43;;;9.90;99.90;;;;;;6729849;88;20284;-79
2021/11/13 10:32:55;;;;;;;9.75;5.60;;;10.00;99.90;;;;;;6731409;88;21017;-78
2021/11/13 10:43:03;;;;;;;7.43;4.57;;;9.90;99.90;;;;;;6736621;88;20219;-78
2021/11/13 10:53:12;;;;;;;10.15;4.60;;;9.80;99.90;;;;;;6738090;88;20597;-78
2021/11/13 11:03:13;;;;;;;8.55;4.25;;;9.90;99.90;;;;;;6735548;88;20245;-78
2021/11/13 11:13:13;;;;;;;9.40;4.70;;;10.00;99.90;;;;;;6737863;88;20232;-79
2021/11/13 11:23:17;;;;;;;11.20;4.93;;;9.80;99.90;;;;;;6738660;88;20335;-78
2021/11/13 11:33:37;;;;;;;9.00;4.50;;;9.60;99.90;;;;;;6743695;88;20186;-79
2021/11/13 11:43:37;;;;;;;7.05;4.40;;;9.50;99.90;;;;;;6747646;88;20166;-78
2021/11/13 11:53:38;;;;;;;8.87;4.27;;;9.60;99.90;;;;;;6747255;88;20182;-78
2021/11/13 12:03:38;;;;;;;7.15;4.32;;;9.60;99.90;;;;;;6747653;88;20514;-78
2021/11/13 12:13:39;;;;;;;6.62;4.30;;;9.70;99.90;;;;;;6749583;88;20182;-78
2021/11/13 12:23:48;;;;;;;6.07;3.92;;;9.60;99.90;;;;;;6749303;88;20244;-79
2021/11/13 12:34:00;;;;;;;6.78;3.35;;;9.60;99.90;;;;;;6746863;88;20717;-78
2021/11/13 12:44:02;;;;;;;6.45;3.58;;;9.60;99.90;;;;;;6747912;88;20170;-79
2021/11/13 12:54:50;;;;;;;5.60;3.60;;;9.70;99.90;;;;;;6740563;88;20330;-79
2021/11/13 13:04:51;;;;;;;7.62;4.07;;;9.80;99.90;;;;;;6667358;88;20228;-78
2021/11/13 13:14:57;;;;;;;7.23;4.20;;;9.80;99.90;;;;;;6732966;88;20189;-78
2021/11/13 13:25:00;;;;;;;8.25;3.95;;;9.80;99.90;;;;;;6728708;88;20515;-78
2021/11/13 13:35:08;;;;;;;6.45;4.30;;;9.80;99.90;;;;;;6733112;88;20192;-78
2021/11/13 13:45:09;;;;;;;7.95;4.10;;;9.80;99.90;;;;;;6726049;88;20339;-77
2021/11/13 13:55:20;;;;;;;7.00;4.00;;;9.90;99.90;;;;;;6733247;88;20262;-78
2021/11/13 14:05:23;;;;;;;7.35;4.03;;;9.90;99.90;;;;;;6731195;88;20523;-79
2021/11/13 14:15:25;;;;;;;8.40;4.50;;;9.80;99.90;;;;;;6734336;88;20325;-79
2021/11/13 14:25:28;;;;;;;7.00;4.32;;;9.70;99.90;;;;;;6734520;88;20311;-78
2021/11/13 14:35:28;;;;;;;7.90;4.60;;;9.70;99.90;;;;;;6735953;88;20204;-78
2021/11/13 14:45:35;;;;;;;7.32;4.78;;;9.70;99.90;;;;;;6737506;88;20197;-78
2021/11/13 14:55:37;;;;;;;9.70;5.97;;;9.60;99.90;;;;;;6737895;88;20183;-79
2021/11/13 15:05:44;;;;;;;12.00;6.37;;;9.50;99.90;;;;;;6732722;88;20209;-79
2021/11/13 15:15:45;;;;;;;9.52;6.55;;;9.40;99.90;;;;;;6738220;88;20320;-78
2021/11/13 15:25:47;;;;;;;12.37;6.65;;;9.30;99.90;;;;;;6737650;88;20985;-79
2021/11/13 15:35:54;;;;;;;13.80;8.05;;;9.20;99.90;;;;;;6732503;88;20169;-78
2021/11/13 15:45:58;;;;;;;11.88;7.03;;;9.20;99.90;;;;;;6735097;88;20182;-79
2021/11/13 15:55:59;;;;;;;11.70;7.15;;;9.20;99.90;;;;;;6735949;88;20197;-79
2021/11/13 16:05:59;;;;;;;13.50;8.35;;;9.20;99.90;;;;;;6735089;88;20219;-78
2021/11/13 16:16:01;;;;;;;13.18;8.30;;;9.10;99.90;;;;;;6730908;88;20192;-80
2021/11/13 16:26:03;;;;;;;11.60;7.62;;;9.10;99.90;;;;;;6747919;88;20240;-80
2021/11/13 16:36:05;;;;;;;15.45;8.15;;;9.20;99.90;;;;;;6749193;88;20210;-81
2021/11/13 16:56:12;;;;;;;13.20;7.60;;;9.20;99.90;;;;;;6727520;88;20235;-78
2021/11/13 17:06:13;;;;;;;11.25;7.22;;;9.20;99.90;;;;;;6711770;88;20203;-79
2021/11/13 17:16:14;;;;;;;10.40;7.65;;;9.20;99.90;;;;;;6713240;88;20212;-78
2021/11/13 17:26:14;;;;;;;13.55;8.30;;;9.10;99.90;;;;;;6716357;88;20221;-80
2021/11/13 17:36:15;;;;;;;11.63;7.85;;;9.20;99.90;;;;;;6718190;88;20154;-79
2021/11/13 17:46:16;;;;;;;12.25;7.32;;;9.30;99.90;;;;;;6706984;88;20701;-79
2021/11/13 17:56:16;;;;;;;10.48;7.40;;;9.30;99.90;;;;;;6713571;88;20220;-78
2021/11/13 18:06:17;;;;;;;12.93;7.50;;;9.40;99.90;;;;;;6721022;88;20897;-78
2021/11/13 18:16:21;;;;;;;11.40;7.32;;;9.40;99.90;;;;;;6718704;88;20508;-79
2021/11/13 18:26:22;;;;;;;11.52;7.35;;;9.40;99.90;;;;;;6716363;88;20207;-80
2021/11/13 18:36:24;;;;;;;11.12;7.35;;;9.40;99.90;;;;;;6713752;88;20202;-80
2021/11/13 18:46:26;;;;;;;11.73;7.15;;;9.40;99.90;;;;;;6710248;88;20208;-79
2021/11/13 18:56:27;;;;;;;10.48;7.10;;;9.30;99.90;;;;;;6704768;88;20197;-78
2021/11/13 19:06:28;;;;;;;9.43;6.60;;;9.40;99.90;;;;;;6694404;88;20820;-78
2021/11/13 19:16:31;;;;;;;10.17;5.90;;;9.40;99.90;;;;;;6699229;88;20211;-78
2021/11/13 19:26:31;;;;;;;8.10;5.57;;;9.30;99.90;;;;;;6714149;88;20593;-80
2021/11/13 19:36:33;;;;;;;8.23;5.25;;;9.30;99.90;;;;;;6722860;88;21040;-80
2021/11/13 19:46:34;;;;;;;7.80;5.03;;;9.30;99.90;;;;;;6719527;88;20186;-80
2021/11/13 19:56:34;;;;;;;7.97;4.77;;;9.50;99.90;;;;;;6726193;88;20907;-81
2021/11/13 20:06:37;;;;;;;7.43;4.20;;;9.50;99.90;;;;;;6725069;88;20621;-81
2021/11/13 20:16:37;;;;;;;5.68;3.95;;;9.50;99.90;;;;;;6725306;88;20198;-81
2021/11/13 20:26:38;;;;;;;6.75;4.22;;;9.50;99.90;;;;;;6719654;88;20204;-80
2021/11/13 20:36:38;;;;;;;7.03;4.68;;;9.50;99.90;;;;;;6720939;88;20755;-81
2021/11/13 20:46:40;;;;;;;6.87;4.55;;;9.50;99.90;;;;;;6718851;88;20245;-80
2021/11/13 20:56:40;;;;;;;5.43;3.75;;;9.40;99.90;;;;;;6703340;88;20724;-81
2021/11/13 21:06:43;;;;;;;4.55;3.80;;;9.60;99.90;;;;;;6709078;88;20296;-80
2021/11/13 21:16:45;;;;;;;6.12;3.42;;;9.40;99.90;;;;;;6704088;88;20257;-80
2021/11/13 21:26:47;;;;;;;6.68;3.87;;;9.50;99.90;;;;;;6702228;88;20194;-81
2021/11/13 21:36:48;;;;;;;7.00;4.30;;;9.40;99.90;;;;;;6700767;88;20660;-80
2021/11/13 21:46:51;;;;;;;6.95;4.12;;;9.50;99.90;;;;;;6699723;88;20223;-80
2021/11/13 21:56:53;;;;;;;6.93;5.03;;;9.30;99.90;;;;;;6705233;88;20601;-80
2021/11/13 22:06:53;;;;;;;7.10;4.70;;;9.10;99.90;;;;;;6707744;88;20284;-81
2021/11/13 22:16:59;;;;;;;7.47;4.68;;;9.00;99.90;;;;;;6707284;88;21036;-81
2021/11/13 22:27:00;;;;;;;;;;;8.90;99.90;;;;;;6706739;88;20259;-80
2021/11/13 22:37:01;;;;;;;7.22;4.95;;;8.90;99.90;;;;;;6709719;88;20091;-80
2021/11/13 22:47:01;;;;;;;6.85;4.97;;;8.90;99.90;;;;;;6711070;88;20194;-80
2021/11/13 22:57:02;;;;;;;12.93;7.40;;;8.90;99.90;;;;;;6711704;88;20306;-81
2021/11/13 23:07:08;;;;;;;7.85;5.18;;;9.10;99.90;;;;;;6713536;88;20515;-80
2021/11/13 23:17:13;;;;;;;5.70;3.85;;;9.00;99.90;;;;;;6727492;88;20323;-81
2021/11/13 23:27:16;;;;;;;5.25;3.50;;;8.80;99.90;;;;;;6722999;88;20199;-80
2021/11/13 23:37:57;;;;;;;7.75;3.83;;;8.80;99.90;;;;;;6715387;77;20237;-79
2021/11/13 23:47:58;;;;;;;4.55;3.30;;;8.70;99.90;;;;;;6679121;89;20243;-80
2021/11/13 23:58:00;;;;;;;5.30;3.55;;;8.70;99.90;;;;;;6685039;88;20645;-80
